sensor_id;sensor_type;location;lat;lon;timestamp;temperature;humidity
14604;DHT22;7388;51.078;13.740;2022-07-19T00:01:48;23.50;34.60
14604;DHT22;7388;51.078;13.740;2022-07-19T00:04:13;23.40;33.90
14604;DHT22;7388;51.078;13.740;2022-07-19T00:06:39;23.40;34.00
14604;DHT22;7388;51.078;13.740;2022-07-19T00:09:05;23.40;34.00
14604;DHT22;7388;51.078;13.740;2022-07-19T00:11:31;23.30;34.00
14604;DHT22;7388;51.078;13.740;2022-07-19T00:13:58;23.30;34.20
14604;DHT22;7388;51.078;13.740;2022-07-19T00:16:23;23.20;34.20
14604;DHT22;7388;51.078;13.740;2022-07-19T00:18:49;23.20;34.20
14604;DHT22;7388;51.078;13.740;2022-07-19T00:21:15;23.10;34.20
14604;DHT22;7388;51.078;13.740;2022-07-19T00:23:41;23.10;34.50
14604;DHT22;7388;51.078;13.740;2022-07-19T00:26:07;23.00;34.40
14604;DHT22;7388;51.078;13.740;2022-07-19T00:28:33;23.00;34.60
14604;DHT22;7388;51.078;13.740;2022-07-19T00:30:59;22.90;34.70
14604;DHT22;7388;51.078;13.740;2022-07-19T00:33:25;22.90;34.70
14604;DHT22;7388;51.078;13.740;2022-07-19T00:35:50;22.90;34.70
14604;DHT22;7388;51.078;13.740;2022-07-19T00:38:16;22.80;34.90
14604;DHT22;7388;51.078;13.740;2022-07-19T00:40:43;22.80;35.10
14604;DHT22;7388;51.078;13.740;2022-07-19T00:43:10;22.70;35.10
14604;DHT22;7388;51.078;13.740;2022-07-19T00:45:37;22.70;35.20
14604;DHT22;7388;51.078;13.740;2022-07-19T00:48:03;22.70;35.10
14604;DHT22;7388;51.078;13.740;2022-07-19T00:50:29;22.70;35.40
14604;DHT22;7388;51.078;13.740;2022-07-19T00:52:58;22.60;35.50
14604;DHT22;7388;51.078;13.740;2022-07-19T00:55:33;22.50;35.60
14604;DHT22;7388;51.078;13.740;2022-07-19T00:58:00;22.50;35.80
14604;DHT22;7388;51.078;13.740;2022-07-19T01:00:27;22.50;35.90
14604;DHT22;7388;51.078;13.740;2022-07-19T01:02:54;22.40;36.10
14604;DHT22;7388;51.078;13.740;2022-07-19T01:05:20;22.30;36.00
14604;DHT22;7388;51.078;13.740;2022-07-19T01:07:46;22.30;35.90
14604;DHT22;7388;51.078;13.740;2022-07-19T01:10:13;22.30;36.10
14604;DHT22;7388;51.078;13.740;2022-07-19T01:12:40;22.30;36.10
14604;DHT22;7388;51.078;13.740;2022-07-19T01:17:39;22.20;36.10
14604;DHT22;7388;51.078;13.740;2022-07-19T01:20:06;22.20;36.10
14604;DHT22;7388;51.078;13.740;2022-07-19T01:22:33;22.10;36.10
14604;DHT22;7388;51.078;13.740;2022-07-19T01:24:58;22.10;36.10
14604;DHT22;7388;51.078;13.740;2022-07-19T01:27:24;22.10;36.40
14604;DHT22;7388;51.078;13.740;2022-07-19T01:29:50;22.00;36.40
14604;DHT22;7388;51.078;13.740;2022-07-19T01:32:16;22.00;36.60
14604;DHT22;7388;51.078;13.740;2022-07-19T01:34:41;21.90;36.60
14604;DHT22;7388;51.078;13.740;2022-07-19T01:37:07;22.00;36.50
14604;DHT22;7388;51.078;13.740;2022-07-19T01:39:33;21.90;36.40
14604;DHT22;7388;51.078;13.740;2022-07-19T01:41:59;21.90;36.60
14604;DHT22;7388;51.078;13.740;2022-07-19T01:44:24;21.90;36.70
14604;DHT22;7388;51.078;13.740;2022-07-19T01:46:50;21.80;36.70
14604;DHT22;7388;51.078;13.740;2022-07-19T01:49:16;21.80;36.70
14604;DHT22;7388;51.078;13.740;2022-07-19T01:51:41;21.70;36.80
14604;DHT22;7388;51.078;13.740;2022-07-19T01:54:07;21.70;36.80
14604;DHT22;7388;51.078;13.740;2022-07-19T01:56:33;21.70;36.80
14604;DHT22;7388;51.078;13.740;2022-07-19T01:58:59;21.70;36.90
14604;DHT22;7388;51.078;13.740;2022-07-19T02:01:24;21.60;36.70
14604;DHT22;7388;51.078;13.740;2022-07-19T02:03:50;21.60;36.70
14604;DHT22;7388;51.078;13.740;2022-07-19T02:06:16;21.60;36.70
14604;DHT22;7388;51.078;13.740;2022-07-19T02:08:42;21.50;37.00
14604;DHT22;7388;51.078;13.740;2022-07-19T02:11:08;21.50;37.00
14604;DHT22;7388;51.078;13.740;2022-07-19T02:13:52;21.40;37.00
14604;DHT22;7388;51.078;13.740;2022-07-19T02:16:18;21.40;37.10
14604;DHT22;7388;51.078;13.740;2022-07-19T02:18:44;21.40;37.20
14604;DHT22;7388;51.078;13.740;2022-07-19T02:21:09;21.30;37.20
14604;DHT22;7388;51.078;13.740;2022-07-19T02:23:35;21.30;37.10
14604;DHT22;7388;51.078;13.740;2022-07-19T02:26:01;21.30;37.20
14604;DHT22;7388;51.078;13.740;2022-07-19T02:28:27;21.30;37.30
14604;DHT22;7388;51.078;13.740;2022-07-19T02:30:53;21.20;37.20
14604;DHT22;7388;51.078;13.740;2022-07-19T02:33:19;21.20;37.20
14604;DHT22;7388;51.078;13.740;2022-07-19T02:35:44;21.10;37.50
14604;DHT22;7388;51.078;13.740;2022-07-19T02:38:10;21.10;37.50
14604;DHT22;7388;51.078;13.740;2022-07-19T02:40:36;21.10;37.30
14604;DHT22;7388;51.078;13.740;2022-07-19T02:43:02;21.10;37.40
14604;DHT22;7388;51.078;13.740;2022-07-19T02:45:27;21.10;37.50
14604;DHT22;7388;51.078;13.740;2022-07-19T02:47:53;21.00;37.40
14604;DHT22;7388;51.078;13.740;2022-07-19T02:50:19;21.00;37.50
14604;DHT22;7388;51.078;13.740;2022-07-19T02:52:44;21.00;37.50
14604;DHT22;7388;51.078;13.740;2022-07-19T02:55:10;20.90;37.70
14604;DHT22;7388;51.078;13.740;2022-07-19T02:57:36;20.90;38.00
14604;DHT22;7388;51.078;13.740;2022-07-19T03:00:07;20.90;37.90
14604;DHT22;7388;51.078;13.740;2022-07-19T03:02:36;20.90;37.80
14604;DHT22;7388;51.078;13.740;2022-07-19T03:05:02;20.80;37.90
14604;DHT22;7388;51.078;13.740;2022-07-19T03:07:27;20.80;37.90
14604;DHT22;7388;51.078;13.740;2022-07-19T03:09:53;20.80;37.80
14604;DHT22;7388;51.078;13.740;2022-07-19T03:12:19;20.80;37.90
14604;DHT22;7388;51.078;13.740;2022-07-19T03:14:45;20.70;37.90
14604;DHT22;7388;51.078;13.740;2022-07-19T03:17:10;20.70;37.90
14604;DHT22;7388;51.078;13.740;2022-07-19T03:19:36;20.70;38.00
14604;DHT22;7388;51.078;13.740;2022-07-19T03:22:02;20.80;38.10
14604;DHT22;7388;51.078;13.740;2022-07-19T03:24:28;20.70;38.20
14604;DHT22;7388;51.078;13.740;2022-07-19T03:26:53;20.70;38.30
14604;DHT22;7388;51.078;13.740;2022-07-19T03:29:19;20.70;38.20
14604;DHT22;7388;51.078;13.740;2022-07-19T03:31:45;20.70;38.20
14604;DHT22;7388;51.078;13.740;2022-07-19T03:34:11;20.60;38.90
14604;DHT22;7388;51.078;13.740;2022-07-19T03:36:37;20.60;38.20
14604;DHT22;7388;51.078;13.740;2022-07-19T03:39:03;20.60;38.30
14604;DHT22;7388;51.078;13.740;2022-07-19T03:41:29;20.60;38.20
14604;DHT22;7388;51.078;13.740;2022-07-19T03:43:55;20.60;38.30
14604;DHT22;7388;51.078;13.740;2022-07-19T03:46:21;20.60;38.40
14604;DHT22;7388;51.078;13.740;2022-07-19T03:48:47;20.60;38.40
14604;DHT22;7388;51.078;13.740;2022-07-19T03:51:13;20.60;38.60
14604;DHT22;7388;51.078;13.740;2022-07-19T03:53:39;20.60;38.50
14604;DHT22;7388;51.078;13.740;2022-07-19T03:56:05;20.60;38.60
14604;DHT22;7388;51.078;13.740;2022-07-19T03:58:31;20.60;38.60
14604;DHT22;7388;51.078;13.740;2022-07-19T04:00:57;20.70;38.50
14604;DHT22;7388;51.078;13.740;2022-07-19T04:03:23;20.70;38.70
14604;DHT22;7388;51.078;13.740;2022-07-19T04:05:49;20.70;38.70
14604;DHT22;7388;51.078;13.740;2022-07-19T04:08:15;20.70;38.70
14604;DHT22;7388;51.078;13.740;2022-07-19T04:10:41;20.80;38.50
14604;DHT22;7388;51.078;13.740;2022-07-19T04:13:07;20.80;38.40
14604;DHT22;7388;51.078;13.740;2022-07-19T04:15:33;20.90;38.40
14604;DHT22;7388;51.078;13.740;2022-07-19T04:17:59;20.90;38.40
14604;DHT22;7388;51.078;13.740;2022-07-19T04:20:25;21.00;38.40
14604;DHT22;7388;51.078;13.740;2022-07-19T04:22:51;21.00;38.60
14604;DHT22;7388;51.078;13.740;2022-07-19T04:25:17;21.10;38.60
14604;DHT22;7388;51.078;13.740;2022-07-19T04:27:42;21.10;38.70
14604;DHT22;7388;51.078;13.740;2022-07-19T04:30:09;21.20;38.80
14604;DHT22;7388;51.078;13.740;2022-07-19T04:32:35;21.20;38.50
14604;DHT22;7388;51.078;13.740;2022-07-19T04:35:01;21.30;38.30
14604;DHT22;7388;51.078;13.740;2022-07-19T04:37:27;21.40;38.30
14604;DHT22;7388;51.078;13.740;2022-07-19T04:39:53;21.50;38.30
14604;DHT22;7388;51.078;13.740;2022-07-19T04:42:19;21.50;38.40
14604;DHT22;7388;51.078;13.740;2022-07-19T04:44:45;21.60;38.20
14604;DHT22;7388;51.078;13.740;2022-07-19T04:47:11;21.60;38.00
14604;DHT22;7388;51.078;13.740;2022-07-19T04:49:37;21.70;38.00
14604;DHT22;7388;51.078;13.740;2022-07-19T04:52:03;21.80;37.90
14604;DHT22;7388;51.078;13.740;2022-07-19T04:54:29;21.80;37.70
14604;DHT22;7388;51.078;13.740;2022-07-19T04:56:54;21.90;37.60
14604;DHT22;7388;51.078;13.740;2022-07-19T04:59:20;22.10;37.60
14604;DHT22;7388;51.078;13.740;2022-07-19T05:01:46;22.20;37.50
14604;DHT22;7388;51.078;13.740;2022-07-19T05:04:12;22.20;37.30
14604;DHT22;7388;51.078;13.740;2022-07-19T05:06:37;22.40;37.20
14604;DHT22;7388;51.078;13.740;2022-07-19T05:09:03;22.50;37.20
14604;DHT22;7388;51.078;13.740;2022-07-19T05:11:29;22.60;37.00
14604;DHT22;7388;51.078;13.740;2022-07-19T05:13:55;22.60;36.80
14604;DHT22;7388;51.078;13.740;2022-07-19T05:16:20;22.70;36.70
14604;DHT22;7388;51.078;13.740;2022-07-19T05:18:46;22.80;36.60
14604;DHT22;7388;51.078;13.740;2022-07-19T05:21:12;23.00;36.60
14604;DHT22;7388;51.078;13.740;2022-07-19T05:23:40;23.00;36.30
14604;DHT22;7388;51.078;13.740;2022-07-19T05:26:07;23.10;36.30
14604;DHT22;7388;51.078;13.740;2022-07-19T05:28:33;23.20;36.20
14604;DHT22;7388;51.078;13.740;2022-07-19T05:30:59;23.30;36.10
14604;DHT22;7388;51.078;13.740;2022-07-19T05:33:27;23.40;36.00
14604;DHT22;7388;51.078;13.740;2022-07-19T05:35:53;23.50;36.00
14604;DHT22;7388;51.078;13.740;2022-07-19T05:38:20;23.60;35.60
14604;DHT22;7388;51.078;13.740;2022-07-19T05:40:45;23.70;35.80
14604;DHT22;7388;51.078;13.740;2022-07-19T05:43:11;23.80;35.80
14604;DHT22;7388;51.078;13.740;2022-07-19T05:45:37;23.90;35.70
14604;DHT22;7388;51.078;13.740;2022-07-19T05:48:03;24.00;35.50
14604;DHT22;7388;51.078;13.740;2022-07-19T05:50:29;24.20;35.70
14604;DHT22;7388;51.078;13.740;2022-07-19T05:52:55;24.30;35.50
14604;DHT22;7388;51.078;13.740;2022-07-19T05:55:20;24.40;35.50
14604;DHT22;7388;51.078;13.740;2022-07-19T05:57:46;24.50;35.00
14604;DHT22;7388;51.078;13.740;2022-07-19T06:00:12;24.50;34.40
14604;DHT22;7388;51.078;13.740;2022-07-19T06:02:40;24.60;34.70
14604;DHT22;7388;51.078;13.740;2022-07-19T06:05:06;24.70;35.00
14604;DHT22;7388;51.078;13.740;2022-07-19T06:07:33;24.80;35.20
14604;DHT22;7388;51.078;13.740;2022-07-19T06:09:59;24.90;34.60
14604;DHT22;7388;51.078;13.740;2022-07-19T06:12:27;25.00;34.80
14604;DHT22;7388;51.078;13.740;2022-07-19T06:14:53;25.10;34.30
14604;DHT22;7388;51.078;13.740;2022-07-19T06:17:19;25.20;33.80
14604;DHT22;7388;51.078;13.740;2022-07-19T06:19:44;25.20;33.10
14604;DHT22;7388;51.078;13.740;2022-07-19T06:22:10;25.30;33.20
14604;DHT22;7388;51.078;13.740;2022-07-19T06:24:36;25.40;32.50
14604;DHT22;7388;51.078;13.740;2022-07-19T06:27:01;25.40;32.40
14604;DHT22;7388;51.078;13.740;2022-07-19T06:29:27;25.50;32.70
14604;DHT22;7388;51.078;13.740;2022-07-19T06:31:53;25.60;32.90
14604;DHT22;7388;51.078;13.740;2022-07-19T06:34:19;25.80;33.30
14604;DHT22;7388;51.078;13.740;2022-07-19T06:36:44;26.00;33.50
14604;DHT22;7388;51.078;13.740;2022-07-19T06:39:10;26.20;33.70
14604;DHT22;7388;51.078;13.740;2022-07-19T06:41:36;26.30;32.20
14604;DHT22;7388;51.078;13.740;2022-07-19T06:44:02;26.40;32.10
14604;DHT22;7388;51.078;13.740;2022-07-19T06:46:27;26.50;32.20
14604;DHT22;7388;51.078;13.740;2022-07-19T06:48:53;26.60;32.50
14604;DHT22;7388;51.078;13.740;2022-07-19T06:51:19;26.70;30.60
14604;DHT22;7388;51.078;13.740;2022-07-19T06:53:45;26.80;31.40
14604;DHT22;7388;51.078;13.740;2022-07-19T06:56:11;27.00;32.30
14604;DHT22;7388;51.078;13.740;2022-07-19T06:58:36;27.10;30.80
14604;DHT22;7388;51.078;13.740;2022-07-19T07:01:03;27.20;31.30
14604;DHT22;7388;51.078;13.740;2022-07-19T07:03:29;27.30;31.50
14604;DHT22;7388;51.078;13.740;2022-07-19T07:05:54;27.50;31.80
14604;DHT22;7388;51.078;13.740;2022-07-19T07:08:20;27.60;30.90
14604;DHT22;7388;51.078;13.740;2022-07-19T07:10:46;27.70;29.20
14604;DHT22;7388;51.078;13.740;2022-07-19T07:13:12;27.80;29.80
14604;DHT22;7388;51.078;13.740;2022-07-19T07:15:37;27.90;29.50
14604;DHT22;7388;51.078;13.740;2022-07-19T07:18:04;28.10;30.10
14604;DHT22;7388;51.078;13.740;2022-07-19T07:20:30;28.20;29.80
14604;DHT22;7388;51.078;13.740;2022-07-19T07:22:55;28.30;30.00
14604;DHT22;7388;51.078;13.740;2022-07-19T07:25:21;28.40;30.50
14604;DHT22;7388;51.078;13.740;2022-07-19T07:27:47;28.60;28.50
14604;DHT22;7388;51.078;13.740;2022-07-19T07:30:13;28.70;28.40
14604;DHT22;7388;51.078;13.740;2022-07-19T07:32:39;28.80;27.70
14604;DHT22;7388;51.078;13.740;2022-07-19T07:35:05;28.90;26.90
14604;DHT22;7388;51.078;13.740;2022-07-19T07:37:31;29.00;28.60
14604;DHT22;7388;51.078;13.740;2022-07-19T07:39:56;29.10;28.50
14604;DHT22;7388;51.078;13.740;2022-07-19T07:42:22;29.20;27.90
14604;DHT22;7388;51.078;13.740;2022-07-19T07:44:50;29.40;28.90
14604;DHT22;7388;51.078;13.740;2022-07-19T07:47:16;29.50;28.80
14604;DHT22;7388;51.078;13.740;2022-07-19T07:49:42;29.70;28.80
14604;DHT22;7388;51.078;13.740;2022-07-19T07:52:08;29.90;28.20
14604;DHT22;7388;51.078;13.740;2022-07-19T07:54:34;30.10;29.00
14604;DHT22;7388;51.078;13.740;2022-07-19T07:57:00;30.20;28.50
14604;DHT22;7388;51.078;13.740;2022-07-19T07:59:26;30.40;28.70
14604;DHT22;7388;51.078;13.740;2022-07-19T08:01:52;30.60;28.40
14604;DHT22;7388;51.078;13.740;2022-07-19T08:04:18;30.80;28.60
14604;DHT22;7388;51.078;13.740;2022-07-19T08:06:43;30.90;28.00
14604;DHT22;7388;51.078;13.740;2022-07-19T08:09:09;31.10;27.80
14604;DHT22;7388;51.078;13.740;2022-07-19T08:11:35;31.20;28.10
14604;DHT22;7388;51.078;13.740;2022-07-19T08:14:01;31.30;28.30
14604;DHT22;7388;51.078;13.740;2022-07-19T08:16:27;31.50;28.30
14604;DHT22;7388;51.078;13.740;2022-07-19T08:18:52;31.60;26.20
14604;DHT22;7388;51.078;13.740;2022-07-19T08:21:18;31.60;26.60
14604;DHT22;7388;51.078;13.740;2022-07-19T08:23:44;31.70;25.70
14604;DHT22;7388;51.078;13.740;2022-07-19T08:26:10;31.80;25.00
14604;DHT22;7388;51.078;13.740;2022-07-19T08:28:35;31.80;25.30
14604;DHT22;7388;51.078;13.740;2022-07-19T08:31:01;32.00;27.10
14604;DHT22;7388;51.078;13.740;2022-07-19T08:33:27;32.10;26.80
14604;DHT22;7388;51.078;13.740;2022-07-19T08:35:53;32.20;25.60
14604;DHT22;7388;51.078;13.740;2022-07-19T08:38:18;32.30;25.00
14604;DHT22;7388;51.078;13.740;2022-07-19T08:40:45;32.50;25.40
14604;DHT22;7388;51.078;13.740;2022-07-19T08:43:14;32.60;24.60
14604;DHT22;7388;51.078;13.740;2022-07-19T08:45:40;32.70;24.30
14604;DHT22;7388;51.078;13.740;2022-07-19T08:48:07;32.70;24.60
14604;DHT22;7388;51.078;13.740;2022-07-19T08:50:34;32.90;24.90
14604;DHT22;7388;51.078;13.740;2022-07-19T08:53:00;33.10;25.70
14604;DHT22;7388;51.078;13.740;2022-07-19T08:55:27;33.20;25.00
14604;DHT22;7388;51.078;13.740;2022-07-19T08:57:53;33.30;24.70
14604;DHT22;7388;51.078;13.740;2022-07-19T09:00:33;33.40;24.30
14604;DHT22;7388;51.078;13.740;2022-07-19T09:03:04;33.50;23.60
14604;DHT22;7388;51.078;13.740;2022-07-19T09:05:31;33.50;23.40
14604;DHT22;7388;51.078;13.740;2022-07-19T09:08:11;33.60;24.30
14604;DHT22;7388;51.078;13.740;2022-07-19T09:10:43;33.80;25.10
14604;DHT22;7388;51.078;13.740;2022-07-19T09:13:14;33.80;24.20
14604;DHT22;7388;51.078;13.740;2022-07-19T09:15:52;33.90;24.00
14604;DHT22;7388;51.078;13.740;2022-07-19T09:18:23;34.00;23.70
14604;DHT22;7388;51.078;13.740;2022-07-19T09:20:58;34.10;23.80
14604;DHT22;7388;51.078;13.740;2022-07-19T09:23:24;34.20;22.60
14604;DHT22;7388;51.078;13.740;2022-07-19T09:25:55;34.30;21.60
14604;DHT22;7388;51.078;13.740;2022-07-19T09:28:22;34.40;21.90
14604;DHT22;7388;51.078;13.740;2022-07-19T09:30:51;34.50;20.60
14604;DHT22;7388;51.078;13.740;2022-07-19T09:33:27;34.60;19.80
14604;DHT22;7388;51.078;13.740;2022-07-19T09:36:03;34.60;20.10
14604;DHT22;7388;51.078;13.740;2022-07-19T09:38:36;34.70;20.00
14604;DHT22;7388;51.078;13.740;2022-07-19T09:41:16;34.80;19.80
14604;DHT22;7388;51.078;13.740;2022-07-19T09:43:55;34.90;19.50
14604;DHT22;7388;51.078;13.740;2022-07-19T09:46:28;35.00;19.50
14604;DHT22;7388;51.078;13.740;2022-07-19T09:49:11;35.20;20.20
14604;DHT22;7388;51.078;13.740;2022-07-19T09:51:41;35.30;20.50
14604;DHT22;7388;51.078;13.740;2022-07-19T09:54:09;35.40;20.00
14604;DHT22;7388;51.078;13.740;2022-07-19T09:56:37;35.50;19.60
14604;DHT22;7388;51.078;13.740;2022-07-19T09:59:04;35.60;20.00
14604;DHT22;7388;51.078;13.740;2022-07-19T10:01:30;35.60;18.60
14604;DHT22;7388;51.078;13.740;2022-07-19T10:04:01;35.60;18.10
14604;DHT22;7388;51.078;13.740;2022-07-19T10:06:27;35.80;18.90
14604;DHT22;7388;51.078;13.740;2022-07-19T10:08:54;35.80;18.00
14604;DHT22;7388;51.078;13.740;2022-07-19T10:11:21;35.90;18.50
14604;DHT22;7388;51.078;13.740;2022-07-19T10:13:49;35.90;18.00
14604;DHT22;7388;51.078;13.740;2022-07-19T10:16:21;36.00;18.90
14604;DHT22;7388;51.078;13.740;2022-07-19T10:19:35;36.10;19.10
14604;DHT22;7388;51.078;13.740;2022-07-19T10:21:53;36.10;19.10
14604;DHT22;7388;51.078;13.740;2022-07-19T10:27:08;36.30;18.90
14604;DHT22;7388;51.078;13.740;2022-07-19T10:29:33;36.30;19.30
14604;DHT22;7388;51.078;13.740;2022-07-19T10:32:04;36.30;18.80
14604;DHT22;7388;51.078;13.740;2022-07-19T10:34:30;36.40;17.60
14604;DHT22;7388;51.078;13.740;2022-07-19T10:36:57;36.40;18.00
14604;DHT22;7388;51.078;13.740;2022-07-19T10:39:28;36.50;17.40
14604;DHT22;7388;51.078;13.740;2022-07-19T10:42:20;36.60;17.60
14604;DHT22;7388;51.078;13.740;2022-07-19T10:50:06;37.00;17.00
14604;DHT22;7388;51.078;13.740;2022-07-19T10:52:40;37.00;17.20
14604;DHT22;7388;51.078;13.740;2022-07-19T11:00:29;37.50;17.10
14604;DHT22;7388;51.078;13.740;2022-07-19T11:06:06;37.70;17.10
14604;DHT22;7388;51.078;13.740;2022-07-19T11:08:37;37.70;16.90
14604;DHT22;7388;51.078;13.740;2022-07-19T11:11:12;37.70;17.10
14604;DHT22;7388;51.078;13.740;2022-07-19T11:13:40;37.70;17.30
14604;DHT22;7388;51.078;13.740;2022-07-19T11:16:08;37.70;17.60
14604;DHT22;7388;51.078;13.740;2022-07-19T11:18:34;37.70;17.40
14604;DHT22;7388;51.078;13.740;2022-07-19T11:21:02;37.80;17.20
14604;DHT22;7388;51.078;13.740;2022-07-19T11:23:29;37.80;16.60
14604;DHT22;7388;51.078;13.740;2022-07-19T11:26:18;37.90;15.70
14604;DHT22;7388;51.078;13.740;2022-07-19T11:28:47;37.90;15.80
14604;DHT22;7388;51.078;13.740;2022-07-19T11:31:23;38.00;17.00
14604;DHT22;7388;51.078;13.740;2022-07-19T11:33:52;38.20;16.30
14604;DHT22;7388;51.078;13.740;2022-07-19T11:36:25;38.20;16.70
14604;DHT22;7388;51.078;13.740;2022-07-19T11:38:58;38.30;16.70
14604;DHT22;7388;51.078;13.740;2022-07-19T11:41:32;38.40;16.60
14604;DHT22;7388;51.078;13.740;2022-07-19T11:44:03;38.40;16.60
14604;DHT22;7388;51.078;13.740;2022-07-19T11:46:35;38.60;16.10
14604;DHT22;7388;51.078;13.740;2022-07-19T11:49:05;38.70;16.40
14604;DHT22;7388;51.078;13.740;2022-07-19T11:51:32;38.80;15.90
14604;DHT22;7388;51.078;13.740;2022-07-19T11:53:59;38.80;15.70
14604;DHT22;7388;51.078;13.740;2022-07-19T11:56:30;38.80;15.90
14604;DHT22;7388;51.078;13.740;2022-07-19T11:58:58;38.70;16.20
14604;DHT22;7388;51.078;13.740;2022-07-19T12:01:28;38.80;15.50
14604;DHT22;7388;51.078;13.740;2022-07-19T12:03:55;38.80;14.80
14604;DHT22;7388;51.078;13.740;2022-07-19T12:09:25;39.00;15.50
14604;DHT22;7388;51.078;13.740;2022-07-19T12:11:53;39.00;15.10
14604;DHT22;7388;51.078;13.740;2022-07-19T12:14:24;39.30;15.90
14604;DHT22;7388;51.078;13.740;2022-07-19T12:17:11;39.40;15.80
14604;DHT22;7388;51.078;13.740;2022-07-19T12:19:39;39.60;15.50
14604;DHT22;7388;51.078;13.740;2022-07-19T12:22:04;39.70;15.30
14604;DHT22;7388;51.078;13.740;2022-07-19T12:24:32;39.80;15.00
14604;DHT22;7388;51.078;13.740;2022-07-19T12:27:08;39.70;15.20
14604;DHT22;7388;51.078;13.740;2022-07-19T12:32:09;39.80;13.60
14604;DHT22;7388;51.078;13.740;2022-07-19T12:35:05;39.80;14.20
14604;DHT22;7388;51.078;13.740;2022-07-19T12:37:39;39.80;13.90
14604;DHT22;7388;51.078;13.740;2022-07-19T12:40:11;39.90;14.50
14604;DHT22;7388;51.078;13.740;2022-07-19T12:45:06;40.00;15.20
14604;DHT22;7388;51.078;13.740;2022-07-19T12:47:32;40.10;15.00
14604;DHT22;7388;51.078;13.740;2022-07-19T12:49:58;40.10;15.10
14604;DHT22;7388;51.078;13.740;2022-07-19T12:52:24;40.10;14.60
14604;DHT22;7388;51.078;13.740;2022-07-19T12:54:49;40.20;13.00
14604;DHT22;7388;51.078;13.740;2022-07-19T12:57:15;40.20;14.00
14604;DHT22;7388;51.078;13.740;2022-07-19T12:59:41;40.10;14.20
14604;DHT22;7388;51.078;13.740;2022-07-19T13:02:12;40.10;13.70
14604;DHT22;7388;51.078;13.740;2022-07-19T13:04:39;40.10;13.80
14604;DHT22;7388;51.078;13.740;2022-07-19T13:07:07;40.20;13.80
14604;DHT22;7388;51.078;13.740;2022-07-19T13:09:34;40.30;14.40
14604;DHT22;7388;51.078;13.740;2022-07-19T13:12:05;40.40;14.40
14604;DHT22;7388;51.078;13.740;2022-07-19T13:14:33;40.40;14.20
14604;DHT22;7388;51.078;13.740;2022-07-19T13:16:59;40.50;14.40
14604;DHT22;7388;51.078;13.740;2022-07-19T13:19:25;40.50;14.20
14604;DHT22;7388;51.078;13.740;2022-07-19T13:21:52;40.60;14.30
14604;DHT22;7388;51.078;13.740;2022-07-19T13:24:18;40.60;14.30
14604;DHT22;7388;51.078;13.740;2022-07-19T13:26:44;40.60;13.10
14604;DHT22;7388;51.078;13.740;2022-07-19T13:29:10;40.60;13.30
14604;DHT22;7388;51.078;13.740;2022-07-19T13:31:36;40.50;13.50
14604;DHT22;7388;51.078;13.740;2022-07-19T13:34:03;40.50;12.80
14604;DHT22;7388;51.078;13.740;2022-07-19T13:36:29;40.50;12.60
14604;DHT22;7388;51.078;13.740;2022-07-19T13:38:54;40.50;12.80
14604;DHT22;7388;51.078;13.740;2022-07-19T13:41:20;40.50;13.10
14604;DHT22;7388;51.078;13.740;2022-07-19T13:43:47;40.40;12.60
14604;DHT22;7388;51.078;13.740;2022-07-19T13:46:13;40.30;13.20
14604;DHT22;7388;51.078;13.740;2022-07-19T13:48:40;40.40;13.70
14604;DHT22;7388;51.078;13.740;2022-07-19T13:51:07;40.50;13.60
14604;DHT22;7388;51.078;13.740;2022-07-19T13:53:35;40.60;13.70
14604;DHT22;7388;51.078;13.740;2022-07-19T13:56:02;40.70;13.70
14604;DHT22;7388;51.078;13.740;2022-07-19T13:58:27;40.80;13.90
14604;DHT22;7388;51.078;13.740;2022-07-19T14:00:53;40.80;13.90
14604;DHT22;7388;51.078;13.740;2022-07-19T14:03:19;40.80;13.40
14604;DHT22;7388;51.078;13.740;2022-07-19T14:05:47;40.80;12.90
14604;DHT22;7388;51.078;13.740;2022-07-19T14:08:14;40.80;13.00
14604;DHT22;7388;51.078;13.740;2022-07-19T14:10:40;40.80;13.30
14604;DHT22;7388;51.078;13.740;2022-07-19T14:13:06;40.80;13.20
14604;DHT22;7388;51.078;13.740;2022-07-19T14:15:32;40.80;13.30
14604;DHT22;7388;51.078;13.740;2022-07-19T14:17:59;40.90;13.30
14604;DHT22;7388;51.078;13.740;2022-07-19T14:20:25;40.80;12.50
14604;DHT22;7388;51.078;13.740;2022-07-19T14:22:52;40.80;13.60
14604;DHT22;7388;51.078;13.740;2022-07-19T14:25:18;40.80;13.10
14604;DHT22;7388;51.078;13.740;2022-07-19T14:27:43;41.00;13.50
14604;DHT22;7388;51.078;13.740;2022-07-19T14:30:10;41.10;13.30
14604;DHT22;7388;51.078;13.740;2022-07-19T14:32:35;41.20;13.40
14604;DHT22;7388;51.078;13.740;2022-07-19T14:35:02;41.20;12.10
14604;DHT22;7388;51.078;13.740;2022-07-19T14:37:28;41.20;12.80
14604;DHT22;7388;51.078;13.740;2022-07-19T14:39:54;41.30;12.80
14604;DHT22;7388;51.078;13.740;2022-07-19T14:42:19;41.30;12.50
14604;DHT22;7388;51.078;13.740;2022-07-19T14:44:45;41.10;12.70
14604;DHT22;7388;51.078;13.740;2022-07-19T14:47:11;41.10;13.20
14604;DHT22;7388;51.078;13.740;2022-07-19T14:49:38;41.00;13.10
14604;DHT22;7388;51.078;13.740;2022-07-19T14:52:04;41.00;13.60
14604;DHT22;7388;51.078;13.740;2022-07-19T14:54:30;40.90;12.80
14604;DHT22;7388;51.078;13.740;2022-07-19T14:56:56;40.90;13.20
14604;DHT22;7388;51.078;13.740;2022-07-19T14:59:22;40.90;13.10
14604;DHT22;7388;51.078;13.740;2022-07-19T15:01:49;41.00;13.60
14604;DHT22;7388;51.078;13.740;2022-07-19T15:04:15;40.90;11.80
14604;DHT22;7388;51.078;13.740;2022-07-19T15:06:41;40.80;11.90
14604;DHT22;7388;51.078;13.740;2022-07-19T15:09:07;40.70;12.30
14604;DHT22;7388;51.078;13.740;2022-07-19T15:11:33;40.60;12.40
14604;DHT22;7388;51.078;13.740;2022-07-19T15:13:59;40.60;13.00
14604;DHT22;7388;51.078;13.740;2022-07-19T15:16:25;40.60;13.30
14604;DHT22;7388;51.078;13.740;2022-07-19T15:18:52;40.60;12.20
14604;DHT22;7388;51.078;13.740;2022-07-19T15:21:18;40.50;12.20
14604;DHT22;7388;51.078;13.740;2022-07-19T15:23:44;40.50;12.70
14604;DHT22;7388;51.078;13.740;2022-07-19T15:26:11;40.40;12.90
14604;DHT22;7388;51.078;13.740;2022-07-19T15:28:38;40.40;13.20
14604;DHT22;7388;51.078;13.740;2022-07-19T15:31:06;40.40;13.40
14604;DHT22;7388;51.078;13.740;2022-07-19T15:33:33;40.40;13.30
14604;DHT22;7388;51.078;13.740;2022-07-19T15:35:59;40.40;13.20
14604;DHT22;7388;51.078;13.740;2022-07-19T15:38:25;40.30;13.40
14604;DHT22;7388;51.078;13.740;2022-07-19T15:40:51;40.30;12.70
14604;DHT22;7388;51.078;13.740;2022-07-19T15:43:18;40.30;13.00
14604;DHT22;7388;51.078;13.740;2022-07-19T15:45:44;40.30;13.50
14604;DHT22;7388;51.078;13.740;2022-07-19T15:48:10;40.30;14.00
14604;DHT22;7388;51.078;13.740;2022-07-19T15:50:36;40.30;13.20
14604;DHT22;7388;51.078;13.740;2022-07-19T15:53:07;40.30;13.30
14604;DHT22;7388;51.078;13.740;2022-07-19T15:55:34;40.20;12.50
14604;DHT22;7388;51.078;13.740;2022-07-19T15:58:00;40.10;12.60